sensor_id;sensor_type;location;lat;lon;timestamp;P1;durP1;ratioP1;P2;durP2;ratioP2
29854;SDS011;16733;48.738;9.106;2022-10-31T00:08:17;10.15;;;2.30;;
29854;SDS011;16733;48.738;9.106;2022-10-31T00:10:43;5.72;;;1.92;;
29854;SDS011;16733;48.738;9.106;2022-10-31T00:13:10;7.85;;;2.50;;
29854;SDS011;16733;48.738;9.106;2022-10-31T00:15:37;12.60;;;2.42;;
29854;SDS011;16733;48.738;9.106;2022-10-31T00:18:04;4.07;;;1.80;;
29854;SDS011;16733;48.738;9.106;2022-10-31T00:20:31;4.78;;;1.88;;
29854;SDS011;16733;48.738;9.106;2022-10-31T00:22:57;4.95;;;1.90;;
29854;SDS011;16733;48.738;9.106;2022-10-31T00:25:24;10.88;;;2.15;;
29854;SDS011;16733;48.738;9.106;2022-10-31T00:27:50;9.35;;;1.90;;
29854;SDS011;16733;48.738;9.106;2022-10-31T00:30:15;6.55;;;2.05;;
29854;SDS011;16733;48.738;9.106;2022-10-31T00:32:41;5.72;;;2.40;;
29854;SDS011;16733;48.738;9.106;2022-10-31T00:35:06;8.07;;;2.10;;
29854;SDS011;16733;48.738;9.106;2022-10-31T00:37:32;9.23;;;2.40;;
29854;SDS011;16733;48.738;9.106;2022-10-31T00:39:58;6.28;;;2.40;;
29854;SDS011;16733;48.738;9.106;2022-10-31T00:42:23;3.72;;;1.90;;
29854;SDS011;16733;48.738;9.106;2022-10-31T00:51:33;8.65;;;1.70;;
29854;SDS011;16733;48.738;9.106;2022-10-31T00:53:59;5.47;;;2.17;;
29854;SDS011;16733;48.738;9.106;2022-10-31T00:56:24;10.52;;;2.88;;
29854;SDS011;16733;48.738;9.106;2022-10-31T00:58:50;6.90;;;2.20;;
29854;SDS011;16733;48.738;9.106;2022-10-31T01:04:37;10.50;;;2.63;;
29854;SDS011;16733;48.738;9.106;2022-10-31T01:07:03;7.13;;;2.03;;
29854;SDS011;16733;48.738;9.106;2022-10-31T01:12:50;6.20;;;2.00;;
29854;SDS011;16733;48.738;9.106;2022-10-31T01:15:17;10.40;;;2.88;;
29854;SDS011;16733;48.738;9.106;2022-10-31T01:17:45;7.93;;;2.30;;
29854;SDS011;16733;48.738;9.106;2022-10-31T01:23:33;5.43;;;2.50;;
29854;SDS011;16733;48.738;9.106;2022-10-31T01:26:18;6.40;;;2.58;;
29854;SDS011;16733;48.738;9.106;2022-10-31T01:29:25;7.57;;;2.22;;
29854;SDS011;16733;48.738;9.106;2022-10-31T01:38:35;6.82;;;2.55;;
29854;SDS011;16733;48.738;9.106;2022-10-31T01:51:07;9.60;;;2.50;;
29854;SDS011;16733;48.738;9.106;2022-10-31T01:53:36;6.25;;;2.30;;
29854;SDS011;16733;48.738;9.106;2022-10-31T01:56:02;6.22;;;2.17;;
29854;SDS011;16733;48.738;9.106;2022-10-31T01:58:28;5.82;;;2.50;;
29854;SDS011;16733;48.738;9.106;2022-10-31T02:00:57;4.93;;;2.22;;
29854;SDS011;16733;48.738;9.106;2022-10-31T02:03:25;7.30;;;2.60;;
29854;SDS011;16733;48.738;9.106;2022-10-31T02:05:52;4.72;;;2.08;;
29854;SDS011;16733;48.738;9.106;2022-10-31T02:08:23;5.63;;;2.38;;
29854;SDS011;16733;48.738;9.106;2022-10-31T02:10:56;9.35;;;3.17;;
29854;SDS011;16733;48.738;9.106;2022-10-31T02:13:23;8.95;;;2.95;;
29854;SDS011;16733;48.738;9.106;2022-10-31T02:15:53;8.88;;;2.78;;
29854;SDS011;16733;48.738;9.106;2022-10-31T02:21:52;6.32;;;2.17;;
29854;SDS011;16733;48.738;9.106;2022-10-31T02:33:53;5.70;;;2.45;;
29854;SDS011;16733;48.738;9.106;2022-10-31T02:36:36;10.52;;;3.40;;
29854;SDS011;16733;48.738;9.106;2022-10-31T02:42:18;5.35;;;2.15;;
29854;SDS011;16733;48.738;9.106;2022-10-31T02:45:07;7.68;;;1.88;;
29854;SDS011;16733;48.738;9.106;2022-10-31T02:51:08;5.70;;;2.35;;
29854;SDS011;16733;48.738;9.106;2022-10-31T02:53:36;6.40;;;2.00;;
29854;SDS011;16733;48.738;9.106;2022-10-31T02:58:35;9.85;;;2.63;;
29854;SDS011;16733;48.738;9.106;2022-10-31T03:06:49;8.68;;;2.58;;
29854;SDS011;16733;48.738;9.106;2022-10-31T03:09:46;3.70;;;1.70;;
29854;SDS011;16733;48.738;9.106;2022-10-31T03:12:24;4.57;;;2.00;;
29854;SDS011;16733;48.738;9.106;2022-10-31T03:22:07;9.48;;;2.72;;
29854;SDS011;16733;48.738;9.106;2022-10-31T03:24:40;3.67;;;1.90;;
29854;SDS011;16733;48.738;9.106;2022-10-31T03:27:08;7.65;;;2.03;;
29854;SDS011;16733;48.738;9.106;2022-10-31T03:29:38;3.92;;;2.10;;
29854;SDS011;16733;48.738;9.106;2022-10-31T03:38:49;5.22;;;2.30;;
29854;SDS011;16733;48.738;9.106;2022-10-31T03:41:17;9.70;;;3.28;;
29854;SDS011;16733;48.738;9.106;2022-10-31T03:43:48;9.18;;;2.25;;
29854;SDS011;16733;48.738;9.106;2022-10-31T03:46:22;5.63;;;1.75;;
29854;SDS011;16733;48.738;9.106;2022-10-31T03:48:48;5.25;;;2.33;;
29854;SDS011;16733;48.738;9.106;2022-10-31T03:59:28;3.00;;;1.67;;
29854;SDS011;16733;48.738;9.106;2022-10-31T04:02:02;8.20;;;2.10;;
29854;SDS011;16733;48.738;9.106;2022-10-31T04:07:55;4.93;;;2.28;;
29854;SDS011;16733;48.738;9.106;2022-10-31T04:10:23;9.23;;;3.33;;
29854;SDS011;16733;48.738;9.106;2022-10-31T04:12:52;6.43;;;2.17;;
29854;SDS011;16733;48.738;9.106;2022-10-31T04:15:22;7.07;;;2.50;;
29854;SDS011;16733;48.738;9.106;2022-10-31T04:17:50;3.53;;;1.83;;
29854;SDS011;16733;48.738;9.106;2022-10-31T04:20:28;7.25;;;2.10;;
29854;SDS011;16733;48.738;9.106;2022-10-31T04:22:57;12.80;;;2.17;;
29854;SDS011;16733;48.738;9.106;2022-10-31T04:25:22;8.63;;;3.00;;
29854;SDS011;16733;48.738;9.106;2022-10-31T04:31:13;5.18;;;2.17;;
29854;SDS011;16733;48.738;9.106;2022-10-31T04:37:01;5.28;;;1.70;;
29854;SDS011;16733;48.738;9.106;2022-10-31T04:39:27;7.25;;;2.13;;
29854;SDS011;16733;48.738;9.106;2022-10-31T04:41:54;3.83;;;2.13;;
29854;SDS011;16733;48.738;9.106;2022-10-31T04:44:19;6.82;;;2.90;;
29854;SDS011;16733;48.738;9.106;2022-10-31T04:46:45;5.82;;;2.75;;
29854;SDS011;16733;48.738;9.106;2022-10-31T04:49:10;4.50;;;2.40;;
29854;SDS011;16733;48.738;9.106;2022-10-31T04:51:36;3.03;;;1.90;;
29854;SDS011;16733;48.738;9.106;2022-10-31T04:54:01;6.60;;;2.22;;
29854;SDS011;16733;48.738;9.106;2022-10-31T04:56:27;10.65;;;2.50;;
29854;SDS011;16733;48.738;9.106;2022-10-31T04:58:52;4.53;;;2.17;;
29854;SDS011;16733;48.738;9.106;2022-10-31T05:01:18;10.55;;;2.70;;
29854;SDS011;16733;48.738;9.106;2022-10-31T05:03:44;4.05;;;2.67;;
29854;SDS011;16733;48.738;9.106;2022-10-31T05:06:09;5.40;;;2.30;;
29854;SDS011;16733;48.738;9.106;2022-10-31T05:08:35;7.47;;;2.42;;
29854;SDS011;16733;48.738;9.106;2022-10-31T05:11:01;8.98;;;3.17;;
29854;SDS011;16733;48.738;9.106;2022-10-31T05:13:28;7.90;;;2.55;;
29854;SDS011;16733;48.738;9.106;2022-10-31T05:15:54;4.00;;;2.40;;
29854;SDS011;16733;48.738;9.106;2022-10-31T05:18:20;7.97;;;2.63;;
29854;SDS011;16733;48.738;9.106;2022-10-31T05:20:45;9.55;;;2.75;;
29854;SDS011;16733;48.738;9.106;2022-10-31T05:23:11;8.05;;;3.22;;
29854;SDS011;16733;48.738;9.106;2022-10-31T05:25:37;5.95;;;2.20;;
29854;SDS011;16733;48.738;9.106;2022-10-31T05:31:24;4.78;;;2.05;;
29854;SDS011;16733;48.738;9.106;2022-10-31T05:33:50;7.85;;;2.17;;
29854;SDS011;16733;48.738;9.106;2022-10-31T05:36:15;6.20;;;2.88;;
29854;SDS011;16733;48.738;9.106;2022-10-31T05:42:03;8.82;;;2.60;;
29854;SDS011;16733;48.738;9.106;2022-10-31T05:50:21;8.85;;;2.67;;
29854;SDS011;16733;48.738;9.106;2022-10-31T05:52:47;6.88;;;2.53;;
29854;SDS011;16733;48.738;9.106;2022-10-31T05:55:18;8.27;;;2.58;;
29854;SDS011;16733;48.738;9.106;2022-10-31T05:57:44;7.22;;;2.53;;
29854;SDS011;16733;48.738;9.106;2022-10-31T06:00:10;11.52;;;2.90;;
29854;SDS011;16733;48.738;9.106;2022-10-31T06:02:36;5.13;;;2.38;;
29854;SDS011;16733;48.738;9.106;2022-10-31T06:05:01;8.70;;;2.67;;
29854;SDS011;16733;48.738;9.106;2022-10-31T06:10:49;7.50;;;2.42;;
29854;SDS011;16733;48.738;9.106;2022-10-31T06:13:15;4.95;;;2.80;;
29854;SDS011;16733;48.738;9.106;2022-10-31T06:15:41;6.10;;;2.40;;
29854;SDS011;16733;48.738;9.106;2022-10-31T06:18:07;6.38;;;2.67;;
29854;SDS011;16733;48.738;9.106;2022-10-31T06:23:55;8.07;;;2.95;;
29854;SDS011;16733;48.738;9.106;2022-10-31T06:26:20;7.22;;;2.17;;
29854;SDS011;16733;48.738;9.106;2022-10-31T06:28:46;4.43;;;2.00;;
29854;SDS011;16733;48.738;9.106;2022-10-31T06:31:11;8.90;;;3.03;;
29854;SDS011;16733;48.738;9.106;2022-10-31T06:33:37;3.45;;;2.20;;
29854;SDS011;16733;48.738;9.106;2022-10-31T06:36:03;10.75;;;3.10;;
29854;SDS011;16733;48.738;9.106;2022-10-31T06:38:28;6.75;;;2.25;;
29854;SDS011;16733;48.738;9.106;2022-10-31T06:44:16;4.55;;;2.15;;
29854;SDS011;16733;48.738;9.106;2022-10-31T06:56:48;5.10;;;2.58;;
29854;SDS011;16733;48.738;9.106;2022-10-31T06:59:14;5.53;;;2.33;;
29854;SDS011;16733;48.738;9.106;2022-10-31T07:01:40;10.25;;;2.67;;
29854;SDS011;16733;48.738;9.106;2022-10-31T07:07:28;8.20;;;2.75;;
29854;SDS011;16733;48.738;9.106;2022-10-31T07:13:15;6.50;;;2.80;;
29854;SDS011;16733;48.738;9.106;2022-10-31T07:15:41;6.85;;;2.50;;
29854;SDS011;16733;48.738;9.106;2022-10-31T07:18:09;5.93;;;3.15;;
29854;SDS011;16733;48.738;9.106;2022-10-31T07:20:35;5.35;;;3.45;;
29854;SDS011;16733;48.738;9.106;2022-10-31T07:23:02;9.77;;;3.50;;
29854;SDS011;16733;48.738;9.106;2022-10-31T07:25:28;8.68;;;3.28;;
29854;SDS011;16733;48.738;9.106;2022-10-31T07:27:53;7.45;;;3.03;;
29854;SDS011;16733;48.738;9.106;2022-10-31T07:30:19;7.80;;;2.95;;
29854;SDS011;16733;48.738;9.106;2022-10-31T07:32:46;9.25;;;3.10;;
29854;SDS011;16733;48.738;9.106;2022-10-31T07:35:27;8.10;;;3.13;;
29854;SDS011;16733;48.738;9.106;2022-10-31T07:37:54;6.35;;;3.13;;
29854;SDS011;16733;48.738;9.106;2022-10-31T07:40:20;5.65;;;2.70;;
29854;SDS011;16733;48.738;9.106;2022-10-31T07:55:34;9.07;;;3.08;;
29854;SDS011;16733;48.738;9.106;2022-10-31T08:01:22;6.55;;;2.25;;
29854;SDS011;16733;48.738;9.106;2022-10-31T08:03:48;9.25;;;3.00;;
29854;SDS011;16733;48.738;9.106;2022-10-31T08:09:35;7.35;;;2.97;;
29854;SDS011;16733;48.738;9.106;2022-10-31T08:12:01;10.27;;;2.83;;
29854;SDS011;16733;48.738;9.106;2022-10-31T08:14:26;9.88;;;2.97;;
29854;SDS011;16733;48.738;9.106;2022-10-31T08:20:14;6.82;;;2.90;;
29854;SDS011;16733;48.738;9.106;2022-10-31T08:22:39;6.72;;;2.72;;
29854;SDS011;16733;48.738;9.106;2022-10-31T08:31:49;12.48;;;3.22;;
29854;SDS011;16733;48.738;9.106;2022-10-31T08:34:14;6.45;;;3.47;;
29854;SDS011;16733;48.738;9.106;2022-10-31T08:36:40;8.65;;;2.85;;
29854;SDS011;16733;48.738;9.106;2022-10-31T08:39:08;7.68;;;2.90;;
29854;SDS011;16733;48.738;9.106;2022-10-31T08:44:55;6.82;;;2.60;;
29854;SDS011;16733;48.738;9.106;2022-10-31T08:47:21;7.82;;;2.63;;
29854;SDS011;16733;48.738;9.106;2022-10-31T08:49:46;10.65;;;2.78;;
29854;SDS011;16733;48.738;9.106;2022-10-31T08:55:34;13.57;;;5.88;;
29854;SDS011;16733;48.738;9.106;2022-10-31T08:58:01;13.60;;;5.90;;
29854;SDS011;16733;48.738;9.106;2022-10-31T09:03:51;12.63;;;3.53;;
29854;SDS011;16733;48.738;9.106;2022-10-31T09:06:16;8.98;;;3.47;;
29854;SDS011;16733;48.738;9.106;2022-10-31T09:12:04;9.63;;;3.47;;
29854;SDS011;16733;48.738;9.106;2022-10-31T09:14:29;8.30;;;3.20;;
29854;SDS011;16733;48.738;9.106;2022-10-31T09:16:55;8.35;;;3.53;;
29854;SDS011;16733;48.738;9.106;2022-10-31T09:22:42;10.20;;;3.50;;
29854;SDS011;16733;48.738;9.106;2022-10-31T09:25:08;6.22;;;3.20;;
29854;SDS011;16733;48.738;9.106;2022-10-31T09:34:18;11.70;;;3.22;;
29854;SDS011;16733;48.738;9.106;2022-10-31T09:36:44;12.90;;;4.35;;
29854;SDS011;16733;48.738;9.106;2022-10-31T09:39:10;11.63;;;4.95;;
29854;SDS011;16733;48.738;9.106;2022-10-31T09:54:09;10.90;;;3.28;;
29854;SDS011;16733;48.738;9.106;2022-10-31T09:56:50;11.13;;;2.92;;
29854;SDS011;16733;48.738;9.106;2022-10-31T09:59:28;14.23;;;3.90;;
29854;SDS011;16733;48.738;9.106;2022-10-31T10:05:01;11.25;;;3.00;;
29854;SDS011;16733;48.738;9.106;2022-10-31T10:13:18;15.27;;;3.70;;
29854;SDS011;16733;48.738;9.106;2022-10-31T10:27:23;9.63;;;3.50;;
29854;SDS011;16733;48.738;9.106;2022-10-31T10:37:12;7.50;;;2.97;;
29854;SDS011;16733;48.738;9.106;2022-10-31T10:39:38;3.40;;;2.50;;
29854;SDS011;16733;48.738;9.106;2022-10-31T10:42:07;6.03;;;2.47;;
29854;SDS011;16733;48.738;9.106;2022-10-31T11:00:42;8.65;;;3.00;;
29854;SDS011;16733;48.738;9.106;2022-10-31T11:03:11;9.57;;;3.13;;
29854;SDS011;16733;48.738;9.106;2022-10-31T11:21:42;12.85;;;4.55;;
29854;SDS011;16733;48.738;9.106;2022-10-31T11:26:35;12.95;;;4.53;;
29854;SDS011;16733;48.738;9.106;2022-10-31T11:32:26;14.18;;;4.63;;
29854;SDS011;16733;48.738;9.106;2022-10-31T11:38:18;8.93;;;3.97;;
29854;SDS011;16733;48.738;9.106;2022-10-31T11:40:59;16.00;;;5.57;;
29854;SDS011;16733;48.738;9.106;2022-10-31T11:43:33;18.55;;;4.65;;
29854;SDS011;16733;48.738;9.106;2022-10-31T11:45:59;13.27;;;3.58;;
29854;SDS011;16733;48.738;9.106;2022-10-31T11:48:33;4.85;;;3.17;;
29854;SDS011;16733;48.738;9.106;2022-10-31T12:00:37;8.65;;;3.42;;
29854;SDS011;16733;48.738;9.106;2022-10-31T12:06:12;12.75;;;3.47;;
29854;SDS011;16733;48.738;9.106;2022-10-31T12:45:44;9.05;;;3.35;;
29854;SDS011;16733;48.738;9.106;2022-10-31T13:06:02;17.95;;;4.00;;
29854;SDS011;16733;48.738;9.106;2022-10-31T13:11:56;8.25;;;3.30;;
29854;SDS011;16733;48.738;9.106;2022-10-31T13:17:53;8.98;;;2.78;;
29854;SDS011;16733;48.738;9.106;2022-10-31T13:20:26;9.50;;;3.40;;
29854;SDS011;16733;48.738;9.106;2022-10-31T13:25:56;8.52;;;2.90;;
29854;SDS011;16733;48.738;9.106;2022-10-31T13:31:08;8.10;;;3.20;;
29854;SDS011;16733;48.738;9.106;2022-10-31T13:36:58;7.72;;;3.40;;
29854;SDS011;16733;48.738;9.106;2022-10-31T13:44:46;10.30;;;3.35;;
29854;SDS011;16733;48.738;9.106;2022-10-31T13:47:23;10.98;;;3.65;;
29854;SDS011;16733;48.738;9.106;2022-10-31T13:55:47;5.90;;;2.80;;
29854;SDS011;16733;48.738;9.106;2022-10-31T13:58:30;10.45;;;3.17;;
29854;SDS011;16733;48.738;9.106;2022-10-31T14:01:06;9.45;;;3.22;;
29854;SDS011;16733;48.738;9.106;2022-10-31T14:04:05;7.60;;;3.30;;
29854;SDS011;16733;48.738;9.106;2022-10-31T14:09:33;7.80;;;3.60;;
29854;SDS011;16733;48.738;9.106;2022-10-31T14:12:06;16.65;;;3.63;;
29854;SDS011;16733;48.738;9.106;2022-10-31T14:14:39;8.75;;;3.95;;
29854;SDS011;16733;48.738;9.106;2022-10-31T14:20:41;10.25;;;3.55;;
29854;SDS011;16733;48.738;9.106;2022-10-31T14:26:32;7.78;;;3.20;;
29854;SDS011;16733;48.738;9.106;2022-10-31T14:35:46;9.60;;;3.60;;
29854;SDS011;16733;48.738;9.106;2022-10-31T14:38:34;8.35;;;3.22;;
29854;SDS011;16733;48.738;9.106;2022-10-31T14:52:30;13.45;;;3.28;;
29854;SDS011;16733;48.738;9.106;2022-10-31T14:58:31;9.38;;;3.20;;
29854;SDS011;16733;48.738;9.106;2022-10-31T15:01:36;12.98;;;3.33;;
29854;SDS011;16733;48.738;9.106;2022-10-31T15:04:09;10.48;;;3.72;;
29854;SDS011;16733;48.738;9.106;2022-10-31T15:06:42;15.90;;;3.55;;
29854;SDS011;16733;48.738;9.106;2022-10-31T15:12:34;14.15;;;3.50;;
29854;SDS011;16733;48.738;9.106;2022-10-31T15:18:25;8.15;;;3.42;;
29854;SDS011;16733;48.738;9.106;2022-10-31T15:20:53;7.35;;;3.72;;
29854;SDS011;16733;48.738;9.106;2022-10-31T15:26:44;7.82;;;3.17;;
29854;SDS011;16733;48.738;9.106;2022-10-31T15:35:57;5.75;;;3.00;;
29854;SDS011;16733;48.738;9.106;2022-10-31T15:41:54;9.95;;;3.50;;
29854;SDS011;16733;48.738;9.106;2022-10-31T15:50:20;13.63;;;3.78;;
29854;SDS011;16733;48.738;9.106;2022-10-31T15:56:22;6.78;;;3.05;;
29854;SDS011;16733;48.738;9.106;2022-10-31T15:58:51;9.85;;;3.45;;
29854;SDS011;16733;48.738;9.106;2022-10-31T16:04:56;8.20;;;3.38;;
29854;SDS011;16733;48.738;9.106;2022-10-31T16:10:45;7.90;;;3.58;;
29854;SDS011;16733;48.738;9.106;2022-10-31T16:23:30;18.02;;;5.10;;
29854;SDS011;16733;48.738;9.106;2022-10-31T16:25:56;14.65;;;3.95;;
29854;SDS011;16733;48.738;9.106;2022-10-31T16:31:44;13.15;;;3.78;;
29854;SDS011;16733;48.738;9.106;2022-10-31T16:34:14;13.45;;;4.00;;
29854;SDS011;16733;48.738;9.106;2022-10-31T16:40:07;7.93;;;3.92;;
29854;SDS011;16733;48.738;9.106;2022-10-31T16:42:35;9.52;;;3.80;;
29854;SDS011;16733;48.738;9.106;2022-10-31T16:48:23;11.55;;;5.30;;
29854;SDS011;16733;48.738;9.106;2022-10-31T16:50:49;15.77;;;6.25;;
29854;SDS011;16733;48.738;9.106;2022-10-31T16:56:39;13.45;;;4.63;;
29854;SDS011;16733;48.738;9.106;2022-10-31T16:59:09;13.93;;;4.63;;
29854;SDS011;16733;48.738;9.106;2022-10-31T17:01:36;11.65;;;5.18;;
29854;SDS011;16733;48.738;9.106;2022-10-31T17:17:32;9.75;;;5.50;;
29854;SDS011;16733;48.738;9.106;2022-10-31T17:19:58;11.65;;;5.00;;
29854;SDS011;16733;48.738;9.106;2022-10-31T17:25:45;17.00;;;6.30;;
29854;SDS011;16733;48.738;9.106;2022-10-31T17:28:12;13.48;;;5.43;;
29854;SDS011;16733;48.738;9.106;2022-10-31T17:30:39;9.48;;;5.30;;
29854;SDS011;16733;48.738;9.106;2022-10-31T17:33:05;20.33;;;5.70;;
29854;SDS011;16733;48.738;9.106;2022-10-31T17:35:31;15.73;;;5.15;;
29854;SDS011;16733;48.738;9.106;2022-10-31T17:37:57;16.20;;;5.85;;
29854;SDS011;16733;48.738;9.106;2022-10-31T17:40:22;18.35;;;5.63;;
29854;SDS011;16733;48.738;9.106;2022-10-31T17:42:49;15.82;;;5.90;;
29854;SDS011;16733;48.738;9.106;2022-10-31T17:48:40;14.90;;;6.05;;
29854;SDS011;16733;48.738;9.106;2022-10-31T18:04:35;17.77;;;6.03;;
29854;SDS011;16733;48.738;9.106;2022-10-31T18:07:00;24.63;;;6.68;;
29854;SDS011;16733;48.738;9.106;2022-10-31T18:16:12;18.20;;;5.80;;
29854;SDS011;16733;48.738;9.106;2022-10-31T18:22:05;19.85;;;6.50;;
29854;SDS011;16733;48.738;9.106;2022-10-31T18:24:30;17.67;;;6.65;;
29854;SDS011;16733;48.738;9.106;2022-10-31T18:26:56;19.30;;;6.82;;
29854;SDS011;16733;48.738;9.106;2022-10-31T18:32:51;20.50;;;7.60;;
29854;SDS011;16733;48.738;9.106;2022-10-31T18:35:17;24.40;;;8.13;;
29854;SDS011;16733;48.738;9.106;2022-10-31T18:37:43;19.85;;;7.85;;
29854;SDS011;16733;48.738;9.106;2022-10-31T18:40:08;26.88;;;8.57;;
29854;SDS011;16733;48.738;9.106;2022-10-31T18:42:34;24.98;;;8.60;;
29854;SDS011;16733;48.738;9.106;2022-10-31T18:44:59;21.73;;;8.23;;
29854;SDS011;16733;48.738;9.106;2022-10-31T19:04:15;23.25;;;7.70;;
29854;SDS011;16733;48.738;9.106;2022-10-31T19:10:03;21.17;;;7.45;;
29854;SDS011;16733;48.738;9.106;2022-10-31T19:12:30;21.20;;;8.00;;
29854;SDS011;16733;48.738;9.106;2022-10-31T19:18:18;19.95;;;7.95;;
29854;SDS011;16733;48.738;9.106;2022-10-31T19:20:44;16.27;;;7.45;;
29854;SDS011;16733;48.738;9.106;2022-10-31T19:23:10;15.50;;;7.15;;
29854;SDS011;16733;48.738;9.106;2022-10-31T19:28:57;20.35;;;5.57;;
29854;SDS011;16733;48.738;9.106;2022-10-31T19:31:23;12.93;;;4.47;;
29854;SDS011;16733;48.738;9.106;2022-10-31T19:37:11;14.43;;;4.78;;
29854;SDS011;16733;48.738;9.106;2022-10-31T19:39:36;10.05;;;4.22;;
29854;SDS011;16733;48.738;9.106;2022-10-31T19:45:24;10.63;;;4.15;;
29854;SDS011;16733;48.738;9.106;2022-10-31T19:47:49;14.00;;;4.22;;
29854;SDS011;16733;48.738;9.106;2022-10-31T19:50:15;8.65;;;4.00;;
29854;SDS011;16733;48.738;9.106;2022-10-31T19:52:40;9.40;;;4.65;;
29854;SDS011;16733;48.738;9.106;2022-10-31T19:55:06;15.07;;;4.47;;
29854;SDS011;16733;48.738;9.106;2022-10-31T19:57:32;9.77;;;5.22;;
29854;SDS011;16733;48.738;9.106;2022-10-31T20:00:00;15.02;;;4.53;;
29854;SDS011;16733;48.738;9.106;2022-10-31T20:02:25;12.00;;;3.97;;
29854;SDS011;16733;48.738;9.106;2022-10-31T20:04:51;11.60;;;4.65;;
29854;SDS011;16733;48.738;9.106;2022-10-31T20:07:17;17.73;;;4.82;;
29854;SDS011;16733;48.738;9.106;2022-10-31T20:09:45;14.00;;;4.55;;
29854;SDS011;16733;48.738;9.106;2022-10-31T20:12:11;13.85;;;4.45;;
29854;SDS011;16733;48.738;9.106;2022-10-31T20:14:36;10.85;;;4.57;;
29854;SDS011;16733;48.738;9.106;2022-10-31T20:17:02;12.90;;;5.10;;
29854;SDS011;16733;48.738;9.106;2022-10-31T20:19:27;12.10;;;4.97;;
29854;SDS011;16733;48.738;9.106;2022-10-31T20:21:53;14.18;;;4.88;;
29854;SDS011;16733;48.738;9.106;2022-10-31T20:24:19;15.23;;;5.30;;
29854;SDS011;16733;48.738;9.106;2022-10-31T20:26:44;13.70;;;4.43;;
29854;SDS011;16733;48.738;9.106;2022-10-31T20:29:13;8.18;;;4.43;;
29854;SDS011;16733;48.738;9.106;2022-10-31T20:31:43;17.90;;;5.75;;
29854;SDS011;16733;48.738;9.106;2022-10-31T20:34:11;11.00;;;4.20;;
29854;SDS011;16733;48.738;9.106;2022-10-31T20:36:38;8.82;;;4.72;;
29854;SDS011;16733;48.738;9.106;2022-10-31T20:39:03;15.23;;;4.78;;
29854;SDS011;16733;48.738;9.106;2022-10-31T20:41:29;10.15;;;5.20;;
29854;SDS011;16733;48.738;9.106;2022-10-31T20:43:55;16.38;;;5.25;;
29854;SDS011;16733;48.738;9.106;2022-10-31T20:46:23;13.57;;;4.43;;
29854;SDS011;16733;48.738;9.106;2022-10-31T20:48:50;11.07;;;5.03;;
29854;SDS011;16733;48.738;9.106;2022-10-31T20:54:39;14.70;;;4.53;;
29854;SDS011;16733;48.738;9.106;2022-10-31T20:57:05;9.52;;;4.72;;
29854;SDS011;16733;48.738;9.106;2022-10-31T20:59:30;12.15;;;4.80;;
29854;SDS011;16733;48.738;9.106;2022-10-31T21:01:56;11.52;;;5.13;;
29854;SDS011;16733;48.738;9.106;2022-10-31T21:04:21;14.52;;;4.85;;
29854;SDS011;16733;48.738;9.106;2022-10-31T21:06:47;10.88;;;4.95;;
29854;SDS011;16733;48.738;9.106;2022-10-31T21:09:12;12.52;;;5.60;;
29854;SDS011;16733;48.738;9.106;2022-10-31T21:15:00;12.15;;;5.60;;
29854;SDS011;16733;48.738;9.106;2022-10-31T21:17:26;17.30;;;6.05;;
29854;SDS011;16733;48.738;9.106;2022-10-31T21:19:52;16.50;;;5.68;;
29854;SDS011;16733;48.738;9.106;2022-10-31T21:22:18;15.32;;;5.20;;
29854;SDS011;16733;48.738;9.106;2022-10-31T21:24:43;16.13;;;5.40;;
29854;SDS011;16733;48.738;9.106;2022-10-31T21:27:09;14.20;;;5.63;;
29854;SDS011;16733;48.738;9.106;2022-10-31T21:29:34;15.73;;;6.15;;
29854;SDS011;16733;48.738;9.106;2022-10-31T21:32:00;14.40;;;5.18;;
29854;SDS011;16733;48.738;9.106;2022-10-31T21:34:25;15.07;;;5.43;;
29854;SDS011;16733;48.738;9.106;2022-10-31T21:40:13;13.13;;;5.40;;
29854;SDS011;16733;48.738;9.106;2022-10-31T21:42:38;14.45;;;5.55;;
29854;SDS011;16733;48.738;9.106;2022-10-31T21:45:04;11.88;;;5.30;;
29854;SDS011;16733;48.738;9.106;2022-10-31T21:47:30;13.95;;;5.80;;
29854;SDS011;16733;48.738;9.106;2022-10-31T21:49:55;16.13;;;6.28;;
29854;SDS011;16733;48.738;9.106;2022-10-31T21:52:21;13.50;;;5.22;;
29854;SDS011;16733;48.738;9.106;2022-10-31T21:54:46;15.43;;;5.50;;
29854;SDS011;16733;48.738;9.106;2022-10-31T21:57:12;11.90;;;5.63;;
29854;SDS011;16733;48.738;9.106;2022-10-31T22:03:00;11.27;;;5.10;;
29854;SDS011;16733;48.738;9.106;2022-10-31T22:05:25;14.50;;;5.40;;
29854;SDS011;16733;48.738;9.106;2022-10-31T22:11:14;13.38;;;4.95;;
29854;SDS011;16733;48.738;9.106;2022-10-31T22:13:41;8.15;;;4.47;;
29854;SDS011;16733;48.738;9.106;2022-10-31T22:19:31;14.25;;;5.03;;
29854;SDS011;16733;48.738;9.106;2022-10-31T22:21:57;13.32;;;5.22;;
29854;SDS011;16733;48.738;9.106;2022-10-31T22:24:22;13.35;;;4.28;;
29854;SDS011;16733;48.738;9.106;2022-10-31T22:26:48;14.25;;;5.38;;
29854;SDS011;16733;48.738;9.106;2022-10-31T22:29:15;11.98;;;5.57;;
29854;SDS011;16733;48.738;9.106;2022-10-31T22:31:43;14.43;;;5.30;;
29854;SDS011;16733;48.738;9.106;2022-10-31T22:34:11;12.02;;;5.18;;
29854;SDS011;16733;48.738;9.106;2022-10-31T22:36:39;10.55;;;4.97;;
29854;SDS011;16733;48.738;9.106;2022-10-31T22:39:05;11.13;;;4.47;;
29854;SDS011;16733;48.738;9.106;2022-10-31T22:41:33;9.23;;;4.32;;
29854;SDS011;16733;48.738;9.106;2022-10-31T22:44:00;15.45;;;4.82;;
29854;SDS011;16733;48.738;9.106;2022-10-31T22:46:34;15.35;;;4.88;;
29854;SDS011;16733;48.738;9.106;2022-10-31T22:49:02;12.68;;;5.43;;
29854;SDS011;16733;48.738;9.106;2022-10-31T22:51:34;12.27;;;4.90;;
29854;SDS011;16733;48.738;9.106;2022-10-31T22:54:01;15.50;;;4.93;;
29854;SDS011;16733;48.738;9.106;2022-10-31T22:56:28;14.70;;;4.82;;
29854;SDS011;16733;48.738;9.106;2022-10-31T22:58:56;10.48;;;4.43;;
29854;SDS011;16733;48.738;9.106;2022-10-31T23:01:26;11.93;;;4.28;;
29854;SDS011;16733;48.738;9.106;2022-10-31T23:10:37;9.48;;;4.35;;
29854;SDS011;16733;48.738;9.106;2022-10-31T23:16:28;12.75;;;4.88;;
29854;SDS011;16733;48.738;9.106;2022-10-31T23:18:54;12.80;;;4.80;;
29854;SDS011;16733;48.738;9.106;2022-10-31T23:21:19;11.00;;;4.43;;
29854;SDS011;16733;48.738;9.106;2022-10-31T23:24:17;10.75;;;4.65;;
29854;SDS011;16733;48.738;9.106;2022-10-31T23:26:42;14.77;;;4.85;;
29854;SDS011;16733;48.738;9.106;2022-10-31T23:29:26;11.15;;;4.65;;
29854;SDS011;16733;48.738;9.106;2022-10-31T23:31:52;12.30;;;4.80;;
29854;SDS011;16733;48.738;9.106;2022-10-31T23:34:19;14.65;;;4.82;;
29854;SDS011;16733;48.738;9.106;2022-10-31T23:36:47;8.93;;;4.80;;
29854;SDS011;16733;48.738;9.106;2022-10-31T23:39:13;10.80;;;4.60;;
29854;SDS011;16733;48.738;9.106;2022-10-31T23:41:38;9.32;;;4.47;;
29854;SDS011;16733;48.738;9.106;2022-10-31T23:44:04;11.27;;;4.93;;
29854;SDS011;16733;48.738;9.106;2022-10-31T23:46:29;8.50;;;4.35;;
29854;SDS011;16733;48.738;9.106;2022-10-31T23:48:55;11.20;;;4.22;;
29854;SDS011;16733;48.738;9.106;2022-10-31T23:51:20;13.10;;;4.55;;
29854;SDS011;16733;48.738;9.106;2022-10-31T23:57:09;6.95;;;3.80;;
